Time;durP1;ratioP1;P1;durP2;ratioP2;P2;SDS_P1;SDS_P2;PMS_P1;PMS_P2;Temp;Humidity;BMP_temperature;BMP_pressure;BME280_temperature;BME280_humidity;BME280_pressure;Samples;Min_cycle;Max_cycle;Signal;HPM_P1;HPM_P2
2023/04/25 00:01:22;;;;;;;4.70;2.30;;;;;;;18.81;59.02;99756.56;5071382;28;20171;-62
2023/04/25 00:03:48;;;;;;;6.40;2.33;;;;;;;18.81;59.16;99756.56;5072274;28;20179;-62
2023/04/25 00:06:13;;;;;;;4.10;2.20;;;;;;;18.79;59.22;99753.28;5087870;28;20170;-63
2023/04/25 00:08:39;;;;;;;4.97;2.47;;;;;;;18.80;59.24;99748.38;5060024;28;21303;-62
2023/04/25 00:11:05;;;;;;;3.60;1.97;;;;;;;18.79;59.16;99756.16;5037092;28;20217;-62
2023/04/25 00:13:30;;;;;;;4.37;2.03;;;;;;;18.79;59.18;99753.28;5071660;28;20171;-62
2023/04/25 00:15:59;;;;;;;4.90;2.53;;;;;;;18.78;59.13;99754.50;5078262;28;20182;-62
2023/04/25 00:18:28;;;;;;;5.83;2.83;;;;;;;18.79;59.34;99758.19;5071170;28;20546;-62
2023/04/25 00:20:53;;;;;;;4.53;2.43;;;;;;;18.80;59.47;99760.66;5075061;28;20468;-62
2023/04/25 00:23:19;;;;;;;5.53;2.73;;;;;;;18.79;59.38;99761.88;5073120;28;20541;-63
2023/04/25 00:25:45;;;;;;;3.43;1.97;;;;;;;18.79;59.04;99766.75;5090816;28;20159;-63
2023/04/25 00:28:11;;;;;;;7.43;2.80;;;;;;;18.82;59.05;99768.84;5074015;28;20688;-62
2023/04/25 00:30:37;;;;;;;5.43;2.50;;;;;;;18.84;59.02;99763.53;5070868;28;20523;-62
2023/04/25 00:33:03;;;;;;;5.03;2.23;;;;;;;18.86;59.00;99764.78;5052855;28;20420;-62
2023/04/25 00:35:28;;;;;;;6.57;2.20;;;;;;;18.87;58.85;99752.09;5052280;28;20422;-62
2023/04/25 00:37:54;;;;;;;4.40;2.00;;;;;;;18.87;58.86;99749.25;5072810;28;20218;-62
2023/04/25 00:40:20;;;;;;;5.27;2.67;;;;;;;18.85;58.97;99763.13;5070565;28;20163;-61
2023/04/25 00:42:45;;;;;;;2.90;2.03;;;;;;;18.84;59.20;99764.38;5075783;28;20456;-62
2023/04/25 00:45:13;;;;;;;5.30;2.57;;;;;;;18.83;59.25;99764.75;5070507;28;20178;-62
2023/04/25 00:47:38;;;;;;;5.30;2.00;;;;;;;18.87;59.05;99765.59;5053500;28;20195;-62
2023/04/25 00:50:04;;;;;;;5.40;2.73;;;;;;;18.81;59.40;99762.28;5090930;28;20420;-62
2023/04/25 00:52:30;;;;;;;6.50;1.80;;;;;;;18.81;59.39;99756.56;5052797;28;20209;-62
2023/04/25 00:54:55;;;;;;;4.20;2.70;;;;;;;18.79;59.45;99747.56;5063630;28;20189;-62
2023/04/25 00:57:20;;;;;;;3.83;2.30;;;;;;;18.78;59.47;99733.66;5084647;28;20534;-62
2023/04/25 00:59:46;;;;;;;5.67;2.40;;;;;;;18.77;59.40;99732.03;5072323;28;20976;-62
2023/04/25 01:02:12;;;;;;;4.80;1.93;;;;;;;18.75;59.68;99732.41;5070260;28;20545;-62
2023/04/25 01:04:38;;;;;;;2.83;1.87;;;;;;;18.76;59.41;99736.91;5070158;28;20654;-63
2023/04/25 01:07:04;;;;;;;4.50;2.63;;;;;;;18.76;59.31;99748.34;5069984;28;20237;-62
2023/04/25 01:09:30;;;;;;;4.00;2.20;;;;;;;18.77;59.57;99743.47;5059930;28;20428;-62
2023/04/25 01:11:57;;;;;;;3.83;2.10;;;;;;;18.76;59.49;99741.81;5090446;28;20221;-62
2023/04/25 01:14:22;;;;;;;3.77;2.00;;;;;;;18.75;59.28;99741.00;5072379;28;20424;-62
2023/04/25 01:16:48;;;;;;;3.13;2.23;;;;;;;18.75;59.47;99746.72;5090391;28;20396;-62
2023/04/25 01:19:13;;;;;;;4.70;2.30;;;;;;;18.74;59.48;99739.34;5086076;28;20218;-61
2023/04/25 01:21:39;;;;;;;4.00;2.33;;;;;;;18.74;59.51;99739.34;5055105;28;20191;-62
2023/04/25 01:24:05;;;;;;;5.17;2.10;;;;;;;18.73;59.51;99731.16;5067409;28;20186;-63
2023/04/25 01:26:30;;;;;;;4.60;2.13;;;;;;;18.73;59.60;99731.16;5086777;28;20219;-63
2023/04/25 01:28:56;;;;;;;3.37;1.83;;;;;;;18.73;59.26;99742.59;5054157;28;20181;-62
2023/04/25 01:31:21;;;;;;;5.60;2.43;;;;;;;18.72;59.34;99744.63;5053521;28;20628;-62
2023/04/25 01:33:47;;;;;;;3.30;1.83;;;;;;;18.71;59.27;99740.13;5060219;28;20186;-62
2023/04/25 01:36:12;;;;;;;3.67;2.13;;;;;;;18.72;59.44;99743.84;5088343;28;20159;-62
2023/04/25 01:38:38;;;;;;;4.00;1.80;;;;;;;18.71;59.67;99745.06;5052368;28;20318;-63
2023/04/25 01:41:03;;;;;;;6.00;2.10;;;;;;;18.71;59.37;99748.72;5035543;28;20643;-62
2023/04/25 01:43:29;;;;;;;3.90;2.23;;;;;;;18.72;59.72;99752.41;5031573;28;20180;-62
2023/04/25 01:45:54;;;;;;;3.20;1.90;;;;;;;18.70;59.37;99741.34;5049749;28;20167;-62
2023/04/25 01:48:20;;;;;;;3.10;1.90;;;;;;;18.69;59.58;99739.72;5033702;28;20630;-62
2023/04/25 01:50:45;;;;;;;3.70;2.20;;;;;;;18.69;59.79;99745.44;5049588;28;20544;-62
2023/04/25 01:53:11;;;;;;;4.17;1.87;;;;;;;18.68;59.59;99740.13;5049699;28;20175;-62
2023/04/25 01:55:37;;;;;;;4.47;1.77;;;;;;;18.69;59.57;99728.28;5031925;28;20685;-63
2023/04/25 01:58:02;;;;;;;2.60;1.70;;;;;;;18.68;59.81;99729.50;5070161;28;20464;-63
2023/04/25 02:00:28;;;;;;;3.90;1.77;;;;;;;18.70;59.65;99737.66;5079090;28;20187;-63
2023/04/25 02:02:53;;;;;;;4.80;2.13;;;;;;;18.69;59.84;99742.59;5053626;28;20189;-63
2023/04/25 02:05:20;;;;;;;6.97;2.30;;;;;;;18.67;60.00;99736.41;5069622;28;20175;-62
2023/04/25 02:07:46;;;;;;;3.70;1.90;;;;;;;18.68;59.79;99742.97;5069479;28;20249;-61
2023/04/25 02:10:12;;;;;;;2.50;1.80;;;;;;;18.71;59.55;99731.56;5051177;28;20453;-62
2023/04/25 02:12:37;;;;;;;3.60;2.17;;;;;;;18.70;59.47;99738.50;5071345;28;20452;-62
2023/04/25 02:15:03;;;;;;;4.73;2.50;;;;;;;18.73;59.51;99732.00;5071873;28;20176;-62
2023/04/25 02:17:28;;;;;;;4.70;2.27;;;;;;;18.76;59.31;99728.34;5069531;28;20187;-61
2023/04/25 02:19:54;;;;;;;3.33;1.53;;;;;;;18.73;59.44;99723.41;5070544;28;20182;-62
2023/04/25 02:22:19;;;;;;;4.27;2.33;;;;;;;18.76;59.59;99724.66;5076308;28;20189;-63
2023/04/25 02:24:46;;;;;;;3.10;1.90;;;;;;;18.76;59.52;99719.75;5076619;28;20201;-62
2023/04/25 02:27:11;;;;;;;3.90;1.90;;;;;;;18.78;59.51;99722.22;5072447;28;20257;-62
2023/04/25 02:29:37;;;;;;;3.73;1.87;;;;;;;18.77;59.50;99727.09;5069359;28;20402;-62
2023/04/25 02:32:03;;;;;;;3.10;1.90;;;;;;;18.74;59.43;99725.06;5053284;28;20212;-62
2023/04/25 02:34:28;;;;;;;3.47;2.20;;;;;;;18.81;59.17;99730.81;5068909;28;20274;-62
2023/04/25 02:36:54;;;;;;;3.20;2.10;;;;;;;18.76;59.69;99725.47;5053635;28;20178;-62
2023/04/25 02:39:21;;;;;;;3.17;1.90;;;;;;;18.74;59.43;99721.38;5083964;28;20206;-61
2023/04/25 02:41:47;;;;;;;4.67;2.90;;;;;;;18.73;59.74;99714.84;5071592;28;20161;-62
2023/04/25 02:44:12;;;;;;;3.53;1.67;;;;;;;18.70;60.07;99718.47;5084316;28;20440;-62
2023/04/25 02:46:38;;;;;;;3.30;1.97;;;;;;;18.69;59.94;99716.00;5089380;28;20178;-62
2023/04/25 02:49:03;;;;;;;2.40;1.80;;;;;;;18.68;59.85;99711.53;5073732;28;20158;-63
2023/04/25 02:51:30;;;;;;;3.33;1.83;;;;;;;18.69;59.91;99716.00;5074896;28;20206;-63
2023/04/25 02:53:55;;;;;;;2.80;1.70;;;;;;;18.68;59.75;99715.22;5072737;28;20158;-62
2023/04/25 02:56:20;;;;;;;3.73;1.90;;;;;;;18.66;59.73;99703.34;5078525;28;20432;-62
2023/04/25 02:58:46;;;;;;;5.23;2.20;;;;;;;18.66;59.71;99709.06;5074715;28;20195;-61
2023/04/25 03:01:11;;;;;;;2.93;2.00;;;;;;;18.66;59.72;99703.34;5055265;28;20229;-62
2023/04/25 03:04:01;;;;;;;2.70;1.90;;;;;;;18.64;59.95;99694.34;5074000;28;20228;-63
2023/04/25 03:06:27;;;;;;;3.27;1.70;;;;;;;18.65;60.13;99698.84;5053269;28;20188;-62
2023/04/25 03:08:52;;;;;;;3.00;1.80;;;;;;;18.64;60.06;99687.78;5051449;28;21104;-62
2023/04/25 03:11:20;;;;;;;4.30;1.60;;;;;;;18.64;60.16;99685.78;5071837;28;20226;-62
2023/04/25 03:13:45;;;;;;;2.43;1.87;;;;;;;18.63;59.93;99692.72;5056143;28;20701;-62
2023/04/25 03:16:11;;;;;;;4.60;2.20;;;;;;;18.63;60.05;99695.56;5092590;28;20543;-62
2023/04/25 03:18:36;;;;;;;3.53;2.00;;;;;;;18.64;59.97;99690.66;5092584;28;20186;-62
2023/04/25 03:21:02;;;;;;;4.77;1.50;;;;;;;18.63;59.94;99692.72;5074485;28;20891;-62
2023/04/25 03:23:27;;;;;;;4.50;2.10;;;;;;;18.62;60.02;99682.47;5066679;28;20539;-62
2023/04/25 03:25:53;;;;;;;2.10;1.60;;;;;;;18.63;59.82;99683.28;5092299;28;20155;-62
2023/04/25 03:28:18;;;;;;;2.83;1.80;;;;;;;18.62;60.35;99682.47;5077425;28;20190;-62
2023/04/25 03:30:43;;;;;;;3.67;1.90;;;;;;;18.61;59.71;99675.13;5070511;28;20190;-63
2023/04/25 03:33:09;;;;;;;3.10;1.80;;;;;;;18.61;60.00;99677.97;5091056;28;20155;-62
2023/04/25 03:35:34;;;;;;;2.30;1.40;;;;;;;18.60;59.86;99675.50;5091887;28;20194;-61
2023/04/25 03:38:00;;;;;;;4.43;2.33;;;;;;;18.60;59.94;99673.47;5069447;28;20211;-62
2023/04/25 03:40:25;;;;;;;3.03;1.77;;;;;;;18.61;60.00;99677.97;5071609;28;20189;-62
2023/04/25 03:42:51;;;;;;;4.50;2.07;;;;;;;18.60;60.24;99673.47;5053830;28;20174;-62
2023/04/25 03:45:16;;;;;;;2.97;1.60;;;;;;;18.59;60.10;99666.13;5085140;28;20201;-62
2023/04/25 03:47:41;;;;;;;2.80;2.03;;;;;;;18.60;60.00;99679.19;5091734;28;20170;-62
2023/04/25 03:50:07;;;;;;;2.53;1.60;;;;;;;18.61;59.96;99668.59;5091836;28;20186;-63
2023/04/25 03:52:33;;;;;;;3.10;1.97;;;;;;;18.61;59.88;99669.38;5071796;28;20166;-62
2023/04/25 03:54:58;;;;;;;2.80;1.57;;;;;;;18.65;59.69;99673.09;5089106;28;20187;-62
2023/04/25 03:57:23;;;;;;;3.20;1.70;;;;;;;18.69;59.69;99664.56;5066860;28;20183;-63
2023/04/25 03:59:49;;;;;;;2.60;1.43;;;;;;;18.69;59.59;99668.25;5079935;28;20179;-62
2023/04/25 04:02:15;;;;;;;3.30;1.83;;;;;;;18.68;59.68;99662.91;5055820;28;20155;-62
2023/04/25 04:04:40;;;;;;;4.20;2.33;;;;;;;18.69;59.63;99661.69;5076135;28;20178;-62
2023/04/25 04:07:05;;;;;;;2.60;1.70;;;;;;;18.73;59.58;99668.25;5090077;28;20194;-62
2023/04/25 04:09:31;;;;;;;3.30;1.47;;;;;;;18.73;59.71;99669.09;5074935;28;20183;-62
2023/04/25 04:11:56;;;;;;;2.83;1.50;;;;;;;18.72;59.72;99667.44;5072146;28;20227;-63
2023/04/25 04:14:22;;;;;;;3.90;1.80;;;;;;;18.73;59.52;99662.53;5072245;28;20619;-63
2023/04/25 04:16:47;;;;;;;3.93;2.00;;;;;;;18.70;59.45;99664.16;5071035;28;20248;-63
2023/04/25 04:19:14;;;;;;;3.73;1.70;;;;;;;18.69;59.78;99662.53;5089473;28;20189;-63
2023/04/25 04:21:39;;;;;;;3.40;1.80;;;;;;;18.68;59.48;99666.59;5070956;28;20540;-63
2023/04/25 04:24:05;;;;;;;2.73;1.60;;;;;;;18.67;59.87;99670.66;5056595;28;20445;-62
2023/04/25 04:26:32;;;;;;;3.90;2.10;;;;;;;18.68;59.96;99660.88;5070109;28;20164;-63
2023/04/25 04:28:59;;;;;;;3.20;1.90;;;;;;;18.66;59.90;99663.31;5072094;28;20558;-62
2023/04/25 04:31:24;;;;;;;3.00;1.73;;;;;;;18.62;60.15;99659.59;5090845;28;20831;-62
2023/04/25 04:33:50;;;;;;;3.17;1.80;;;;;;;18.62;59.90;99667.38;5090858;28;20416;-62
2023/04/25 04:36:19;;;;;;;6.07;2.30;;;;;;;18.61;60.25;99663.69;5086645;28;20178;-62
2023/04/25 04:38:45;;;;;;;2.97;1.80;;;;;;;18.61;59.95;99668.59;5090465;28;20470;-61
2023/04/25 04:41:10;;;;;;;2.40;1.80;;;;;;;18.61;60.27;99671.44;5054784;28;20904;-62
2023/04/25 04:43:36;;;;;;;2.40;1.67;;;;;;;18.62;59.78;99668.16;5070485;28;20236;-62
2023/04/25 04:46:03;;;;;;;2.53;1.63;;;;;;;18.60;60.19;99667.75;5081717;28;20171;-62
2023/04/25 04:48:28;;;;;;;4.10;1.60;;;;;;;18.60;60.03;99681.22;5051152;28;20409;-63
2023/04/25 04:50:54;;;;;;;2.17;1.40;;;;;;;18.60;60.41;99684.91;5078543;28;20470;-62
2023/04/25 04:53:20;;;;;;;4.13;1.97;;;;;;;18.63;59.85;99683.28;5075718;28;20187;-62
2023/04/25 04:55:46;;;;;;;3.90;2.47;;;;;;;18.66;60.57;99686.19;5061843;28;20673;-61
2023/04/25 04:58:11;;;;;;;9.80;4.10;;;;;;;18.69;59.66;99690.28;5069948;28;20187;-61
2023/04/25 05:00:37;;;;;;;7.57;4.93;;;;;;;18.79;59.83;99692.41;5051506;28;20998;-63
2023/04/25 05:03:02;;;;;;;9.83;4.93;;;;;;;18.56;55.18;99686.91;5065991;28;20185;-61
2023/04/25 05:05:28;;;;;;;10.83;5.33;;;;;;;18.79;56.89;99695.25;5064199;28;20870;-62
2023/04/25 05:07:53;;;;;;;7.83;4.73;;;;;;;18.88;56.62;99692.88;5064335;28;20203;-62
2023/04/25 05:10:19;;;;;;;10.53;4.67;;;;;;;19.03;56.57;99701.16;5043567;28;20215;-63
2023/04/25 05:12:44;;;;;;;8.20;3.73;;;;;;;19.14;57.21;99696.34;5050331;28;20688;-62
2023/04/25 05:15:10;;;;;;;14.50;4.37;;;;;;;19.54;56.52;99695.34;5047073;28;20198;-62
2023/04/25 05:17:36;;;;;;;13.93;3.97;;;;;;;19.60;56.40;99696.56;5046000;28;20195;-61
2023/04/25 05:20:02;;;;;;;6.70;3.30;;;;;;;19.75;56.29;99704.84;5051790;28;20202;-61
2023/04/25 05:22:28;;;;;;;7.17;3.00;;;;;;;19.68;56.13;99701.97;5045166;28;20608;-61
2023/04/25 05:24:53;;;;;;;9.30;3.00;;;;;;;19.76;57.11;99703.59;5045712;28;20422;-61
2023/04/25 05:27:18;;;;;;;8.03;2.70;;;;;;;19.84;56.63;99708.16;5047044;28;20199;-62
2023/04/25 05:29:44;;;;;;;5.50;2.90;;;;;;;19.90;57.04;99717.16;5032085;28;20176;-61
2023/04/25 05:32:10;;;;;;;5.47;2.50;;;;;;;19.75;57.14;99713.44;5047859;28;20510;-62
2023/04/25 05:34:35;;;;;;;8.23;3.70;;;;;;;19.56;58.02;99710.88;5050025;28;20195;-62
2023/04/25 05:37:01;;;;;;;11.13;3.33;;;;;;;19.56;58.72;99718.66;5046392;28;20180;-61
2023/04/25 05:39:26;;;;;;;11.13;2.97;;;;;;;19.56;59.59;99719.47;5037677;28;20254;-61
2023/04/25 05:41:52;;;;;;;8.20;3.70;;;;;;;19.52;60.04;99717.84;5029379;28;20161;-62
2023/04/25 05:44:17;;;;;;;6.30;3.23;;;;;;;19.46;60.54;99711.66;5050592;28;20215;-61
2023/04/25 05:46:43;;;;;;;12.67;2.77;;;;;;;19.54;60.71;99718.25;5047788;28;20664;-61
2023/04/25 05:49:09;;;;;;;11.40;3.20;;;;;;;19.54;61.66;99721.09;5048335;28;20254;-61
2023/04/25 05:51:34;;;;;;;8.67;3.07;;;;;;;19.52;62.00;99720.69;5030034;28;20182;-61
2023/04/25 05:53:59;;;;;;;7.07;2.70;;;;;;;19.52;61.97;99727.22;5036201;28;20180;-61
2023/04/25 05:56:25;;;;;;;7.00;3.10;;;;;;;19.51;62.09;99722.72;5049135;28;20188;-61
2023/04/25 05:58:50;;;;;;;6.80;2.97;;;;;;;19.53;62.11;99723.16;5047677;28;20211;-61
2023/04/25 06:01:16;;;;;;;9.40;2.63;;;;;;;19.56;62.10;99730.94;5049697;28;20226;-61
2023/04/25 06:03:44;;;;;;;8.13;2.87;;;;;;;19.49;61.74;99725.19;5030160;28;20191;-61
2023/04/25 06:06:11;;;;;;;5.90;2.90;;;;;;;19.42;61.75;99730.03;5049281;28;20187;-62
2023/04/25 06:08:37;;;;;;;5.60;2.77;;;;;;;19.33;60.64;99733.28;5050712;28;20531;-62
2023/04/25 06:11:03;;;;;;;5.27;2.30;;;;;;;19.29;59.64;99741.00;5037567;28;20470;-61
2023/04/25 06:13:28;;;;;;;4.73;2.40;;;;;;;19.25;58.26;99739.34;5048350;28;20791;-62
2023/04/25 06:15:54;;;;;;;3.13;2.00;;;;;;;19.26;57.25;99738.13;5060269;28;20192;-61
2023/04/25 06:18:19;;;;;;;4.73;2.13;;;;;;;19.24;57.29;99741.41;5060108;28;20207;-61
2023/04/25 06:20:45;;;;;;;6.70;2.30;;;;;;;19.20;57.38;99740.50;5070109;28;20175;-61
2023/04/25 06:23:10;;;;;;;5.03;1.67;;;;;;;19.20;56.98;99743.38;5068155;28;20202;-61
2023/04/25 06:25:35;;;;;;;5.43;2.00;;;;;;;19.17;56.71;99741.28;5065080;28;20199;-61
2023/04/25 06:28:01;;;;;;;5.67;2.53;;;;;;;19.17;56.53;99747.03;5070785;28;20717;-62
2023/04/25 06:30:26;;;;;;;4.43;2.23;;;;;;;19.16;56.81;99750.31;5057040;28;20658;-61
2023/04/25 06:32:52;;;;;;;8.70;2.50;;;;;;;19.25;59.31;99748.75;5070681;28;20724;-63
2023/04/25 06:35:18;;;;;;;11.13;2.70;;;;;;;19.14;58.12;99755.59;5050778;28;20726;-62
2023/04/25 06:37:44;;;;;;;9.73;3.30;;;;;;;19.10;58.47;99761.28;5071592;28;20499;-62
2023/04/25 06:40:10;;;;;;;16.80;3.10;;;;;;;19.09;59.17;99756.78;5083126;28;20186;-61
2023/04/25 06:42:35;;;;;;;9.73;3.00;;;;;;;19.08;59.20;99762.91;5058357;28;20184;-61
2023/04/25 06:45:01;;;;;;;9.43;2.70;;;;;;;19.06;59.32;99763.28;5072532;28;20198;-61
2023/04/25 06:47:26;;;;;;;8.87;2.30;;;;;;;19.06;59.40;99763.28;5053280;28;20164;-61
2023/04/25 06:49:52;;;;;;;7.50;2.20;;;;;;;19.06;59.33;99762.50;5053861;28;20210;-62
2023/04/25 06:52:17;;;;;;;7.80;2.87;;;;;;;19.04;59.54;99768.59;5090526;28;20213;-62
2023/04/25 06:54:43;;;;;;;9.73;2.50;;;;;;;19.05;59.24;99764.53;5072847;28;20224;-62
2023/04/25 06:57:08;;;;;;;9.67;2.50;;;;;;;19.05;59.23;99775.13;5055585;28;20186;-61
2023/04/25 06:59:34;;;;;;;9.33;2.00;;;;;;;19.05;59.39;99772.28;5079083;28;20210;-62
2023/04/25 07:01:59;;;;;;;9.27;2.70;;;;;;;19.04;59.38;99776.34;5069468;28;20230;-62
2023/04/25 07:04:25;;;;;;;6.83;2.13;;;;;;;19.02;59.51;99778.81;5072030;28;20186;-62
2023/04/25 07:06:51;;;;;;;7.67;2.20;;;;;;;19.02;59.74;99790.25;5055213;28;20187;-62
2023/04/25 07:09:16;;;;;;;7.27;2.33;;;;;;;18.99;59.96;99791.03;5053921;28;20175;-62
2023/04/25 07:11:42;;;;;;;7.03;2.00;;;;;;;18.99;59.85;99786.13;5079053;28;20230;-62
2023/04/25 07:14:07;;;;;;;9.30;2.07;;;;;;;18.98;59.80;99789.41;5072336;28;20261;-61
2023/04/25 07:16:32;;;;;;;13.23;2.17;;;;;;;18.97;59.95;99800.00;5072405;28;20522;-61
2023/04/25 07:18:59;;;;;;;7.53;2.17;;;;;;;18.97;59.87;99800.00;5091878;28;20752;-62
2023/04/25 07:21:25;;;;;;;5.13;2.00;;;;;;;18.96;59.75;99800.44;5092477;28;20649;-62
2023/04/25 07:23:50;;;;;;;3.90;2.00;;;;;;;18.96;59.87;99803.28;5087780;28;20440;-61
2023/04/25 07:26:16;;;;;;;8.20;2.30;;;;;;;18.95;59.76;99802.44;5092330;28;20202;-61
2023/04/25 07:28:42;;;;;;;9.33;2.87;;;;;;;18.94;59.98;99806.53;5075567;28;20179;-61
2023/04/25 07:31:07;;;;;;;8.00;2.47;;;;;;;18.92;59.83;99811.81;5077071;28;20241;-61
2023/04/25 07:33:33;;;;;;;4.50;1.90;;;;;;;18.92;60.06;99814.66;5053212;28;20518;-61
2023/04/25 07:35:59;;;;;;;3.27;1.80;;;;;;;18.92;60.07;99819.59;5071077;28;20163;-62
2023/04/25 07:38:24;;;;;;;6.33;2.20;;;;;;;18.91;60.12;99818.75;5076432;28;20209;-62
2023/04/25 07:40:49;;;;;;;8.33;2.17;;;;;;;18.94;60.16;99828.59;5086610;28;20182;-62
2023/04/25 07:43:16;;;;;;;7.60;2.00;;;;;;;18.97;59.75;99827.81;5071468;28;20183;-62
2023/04/25 07:45:45;;;;;;;8.93;2.03;;;;;;;19.01;59.60;99829.47;5070875;28;20535;-62
2023/04/25 07:48:10;;;;;;;4.80;2.10;;;;;;;18.98;59.68;99838.84;5079882;28;20470;-61
2023/04/25 07:50:36;;;;;;;5.20;2.10;;;;;;;18.99;59.80;99840.50;5091120;28;20409;-61
2023/04/25 07:53:01;;;;;;;5.77;1.90;;;;;;;19.04;59.55;99843.00;5086529;28;20209;-62
2023/04/25 07:55:27;;;;;;;8.03;1.93;;;;;;;19.05;59.68;99841.78;5072500;28;20186;-62
2023/04/25 07:57:53;;;;;;;3.80;1.83;;;;;;;18.99;59.89;99849.06;5080053;28;20187;-62
2023/04/25 08:00:19;;;;;;;6.23;1.70;;;;;;;18.98;59.84;99858.06;5070746;28;20222;-61
2023/04/25 08:02:44;;;;;;;6.73;1.80;;;;;;;18.94;60.09;99858.03;5055343;28;20198;-62
2023/04/25 08:05:13;;;;;;;4.20;1.80;;;;;;;18.91;60.27;99864.53;5053316;28;20175;-61
2023/04/25 08:07:40;;;;;;;4.60;1.80;;;;;;;18.90;60.41;99867.78;5055955;28;20206;-61
2023/04/25 08:10:06;;;;;;;5.43;1.97;;;;;;;18.86;60.19;99876.31;5071146;28;20482;-61
2023/04/25 08:12:32;;;;;;;5.77;1.70;;;;;;;18.85;60.26;99877.53;5071588;28;20976;-61
2023/04/25 08:14:57;;;;;;;8.87;2.20;;;;;;;18.84;60.36;99887.34;5053945;28;20545;-61
2023/04/25 08:17:22;;;;;;;5.83;1.63;;;;;;;18.84;60.49;99886.50;5073299;28;20535;-61
2023/04/25 08:19:48;;;;;;;4.63;2.10;;;;;;;18.84;60.24;99897.94;5062443;28;20206;-61
2023/04/25 08:22:14;;;;;;;5.10;1.87;;;;;;;18.83;60.42;99897.16;5072884;28;20680;-62
2023/04/25 08:24:40;;;;;;;5.00;1.97;;;;;;;18.84;60.38;99901.66;5072774;28;20240;-61
2023/04/25 08:27:07;;;;;;;4.37;1.73;;;;;;;18.82;60.22;99901.19;5070685;28;20183;-61
2023/04/25 08:29:33;;;;;;;4.50;1.67;;;;;;;18.80;60.73;99909.34;5073451;28;20582;-61
2023/04/25 08:31:59;;;;;;;4.40;1.70;;;;;;;18.80;60.57;99911.38;5054442;28;20453;-62
2023/04/25 08:34:25;;;;;;;4.40;1.60;;;;;;;18.78;60.54;99911.81;5070436;28;20508;-61
2023/04/25 08:36:50;;;;;;;4.87;1.97;;;;;;;18.79;60.69;99919.16;5070555;28;20822;-61
2023/04/25 08:39:16;;;;;;;5.13;1.70;;;;;;;18.78;60.33;99914.66;5070291;28;20587;-62
2023/04/25 08:41:41;;;;;;;3.70;1.50;;;;;;;18.80;60.45;99929.38;5068181;28;20213;-62
2023/04/25 08:44:08;;;;;;;6.20;2.30;;;;;;;18.80;60.33;99934.25;5072561;28;20191;-61
2023/04/25 08:46:34;;;;;;;3.20;1.63;;;;;;;18.78;60.72;99931.81;5085870;28;20186;-62
2023/04/25 08:49:02;;;;;;;3.23;1.60;;;;;;;18.78;60.39;99939.56;5090600;28;20412;-62
2023/04/25 08:51:31;;;;;;;3.60;1.83;;;;;;;18.79;60.45;99938.34;5074221;28;20278;-61
2023/04/25 08:53:57;;;;;;;6.60;1.80;;;;;;;18.78;60.47;99934.69;5054550;28;20441;-62
2023/04/25 08:56:23;;;;;;;3.90;1.53;;;;;;;18.76;60.63;99948.53;5035914;28;20413;-61
2023/04/25 08:58:50;;;;;;;5.53;2.13;;;;;;;18.76;60.61;99936.28;5072107;28;20214;-60
2023/04/25 09:01:15;;;;;;;2.93;1.60;;;;;;;18.76;60.52;99950.59;5090219;28;20401;-61
2023/04/25 09:03:41;;;;;;;3.73;1.60;;;;;;;18.75;60.55;99946.88;5090442;28;20427;-61
2023/04/25 09:06:06;;;;;;;10.00;2.33;;;;;;;18.76;60.53;99954.25;5056970;28;20198;-61
2023/04/25 09:08:31;;;;;;;3.20;1.77;;;;;;;18.75;60.65;99960.34;5051801;28;20187;-61
2023/04/25 09:10:57;;;;;;;3.70;1.57;;;;;;;18.74;60.70;99965.28;5051648;28;20258;-62
2023/04/25 09:13:27;;;;;;;5.27;1.70;;;;;;;18.74;60.82;99968.13;5050531;28;20174;-62
2023/04/25 09:15:56;;;;;;;4.17;1.80;;;;;;;18.74;60.81;99968.13;5069580;28;20189;-61
2023/04/25 09:18:28;;;;;;;3.40;1.60;;;;;;;18.74;60.43;99961.56;5090032;28;20455;-61
2023/04/25 09:21:14;;;;;;;4.03;1.90;;;;;;;18.73;60.75;99975.06;5058705;28;20532;-61
2023/04/25 09:23:49;;;;;;;3.80;2.10;;;;;;;18.75;60.80;99980.38;5069024;28;20483;-61
2023/04/25 09:26:19;;;;;;;4.47;1.70;;;;;;;18.72;60.72;99984.84;5075426;28;20447;-61
2023/04/25 09:28:45;;;;;;;3.47;1.73;;;;;;;18.75;60.82;99980.38;5054298;28;20422;-62
2023/04/25 09:31:11;;;;;;;3.50;1.73;;;;;;;18.73;60.94;99989.38;5051300;28;20409;-61
2023/04/25 09:33:37;;;;;;;5.37;1.77;;;;;;;18.74;60.84;99988.16;5053668;28;20453;-61
2023/04/25 09:36:07;;;;;;;3.57;2.00;;;;;;;18.73;60.67;99995.09;5071090;28;20724;-61
2023/04/25 09:38:40;;;;;;;6.10;1.83;;;;;;;18.73;60.71;99992.22;5069386;28;20222;-61
2023/04/25 09:41:05;;;;;;;4.97;1.67;;;;;;;18.76;60.97;99996.34;5055383;28;20544;-61
2023/04/25 09:43:30;;;;;;;2.50;1.50;;;;;;;18.75;60.59;99998.38;5089755;28;20447;-62
2023/04/25 09:45:59;;;;;;;5.10;1.90;;;;;;;18.79;60.79;100002.09;5089866;28;20452;-61
2023/04/25 09:48:24;;;;;;;4.33;1.43;;;;;;;18.78;60.49;99997.59;5072760;28;20175;-61
2023/04/25 09:51:06;;;;;;;4.00;1.57;;;;;;;18.80;60.63;100000.88;5069772;28;20445;-62
2023/04/25 09:53:42;;;;;;;4.60;1.50;;;;;;;18.77;60.54;100004.50;5077509;28;20656;-61
2023/04/25 09:56:09;;;;;;;4.20;1.67;;;;;;;18.80;60.58;100011.47;5054737;28;20409;-61
2023/04/25 09:58:35;;;;;;;5.47;1.63;;;;;;;18.80;60.51;100003.75;5053654;28;20472;-61
2023/04/25 10:01:02;;;;;;;3.50;1.50;;;;;;;18.79;60.56;100012.69;5039341;28;20472;-61
2023/04/25 10:03:31;;;;;;;6.43;1.83;;;;;;;18.77;60.86;100013.09;5077103;28;20445;-61
2023/04/25 10:06:00;;;;;;;2.37;1.53;;;;;;;18.76;60.92;100011.44;5073536;28;20881;-62
2023/04/25 10:08:31;;;;;;;2.53;1.57;;;;;;;18.75;60.66;100014.69;5074106;28;20539;-61
2023/04/25 10:10:59;;;;;;;4.20;1.63;;;;;;;18.76;60.92;100017.16;5056142;28;20488;-61
2023/04/25 10:13:24;;;;;;;3.43;1.50;;;;;;;18.75;60.84;100015.53;5055728;28;20406;-62
2023/04/25 10:15:54;;;;;;;3.50;1.67;;;;;;;18.74;60.68;100022.47;5075533;28;21239;-61
2023/04/25 10:18:19;;;;;;;2.63;1.60;;;;;;;18.72;60.99;100015.47;5056878;28;20947;-61
2023/04/25 10:20:45;;;;;;;6.63;1.73;;;;;;;18.72;60.76;100024.06;5071987;28;20436;-61
2023/04/25 10:23:15;;;;;;;4.80;1.53;;;;;;;18.72;60.82;100032.66;5075305;28;20229;-62
2023/04/25 10:25:41;;;;;;;2.77;1.47;;;;;;;18.70;60.99;100038.75;5055361;28;20202;-61
2023/04/25 10:28:06;;;;;;;2.20;1.40;;;;;;;18.69;60.81;100039.97;5064253;28;20947;-61
2023/04/25 10:30:32;;;;;;;3.50;1.50;;;;;;;18.70;60.94;100041.59;5055021;28;20428;-61
2023/04/25 10:32:58;;;;;;;2.80;1.43;;;;;;;18.71;60.68;100046.09;5073155;28;20190;-61
2023/04/25 10:35:27;;;;;;;2.70;1.40;;;;;;;18.70;60.79;100041.59;5087707;28;20206;-61
2023/04/25 10:38:19;;;;;;;2.63;1.43;;;;;;;18.69;61.08;100039.97;5080369;28;20437;-62
2023/04/25 10:41:03;;;;;;;3.00;1.30;;;;;;;18.68;60.83;100032.59;5068972;28;21012;-61
2023/04/25 10:43:39;;;;;;;2.73;1.43;;;;;;;18.68;61.08;100029.75;5093046;28;20434;-61
2023/04/25 10:46:19;;;;;;;6.20;1.57;;;;;;;18.67;61.12;100039.50;5093024;28;20450;-61
2023/04/25 10:48:47;;;;;;;4.50;1.60;;;;;;;18.68;61.14;100041.19;5088838;28;20436;-61
2023/04/25 10:51:18;;;;;;;5.93;1.33;;;;;;;18.67;60.94;100041.56;5093001;28;20478;-62
2023/04/25 10:53:45;;;;;;;2.10;1.33;;;;;;;18.68;61.19;100048.91;5070444;28;20436;-61
2023/04/25 10:56:17;;;;;;;4.50;1.67;;;;;;;18.68;61.14;100048.91;5093013;28;20980;-62
2023/04/25 10:58:46;;;;;;;4.57;1.90;;;;;;;18.66;60.92;100054.22;5074935;28;20952;-61
2023/04/25 11:01:19;;;;;;;2.70;1.40;;;;;;;18.67;60.96;100047.28;5074602;28;21132;-63
2023/04/25 11:03:45;;;;;;;3.53;1.70;;;;;;;18.66;60.93;100046.44;5074437;28;20543;-61
2023/04/25 11:06:23;;;;;;;3.40;1.53;;;;;;;18.67;61.24;100055.84;5072159;28;20482;-61
2023/04/25 11:08:50;;;;;;;2.90;1.37;;;;;;;18.67;61.43;100050.13;5073847;28;20199;-61
2023/04/25 11:11:19;;;;;;;3.80;1.77;;;;;;;18.66;61.19;100052.16;5072186;28;20895;-61
2023/04/25 11:13:48;;;;;;;3.33;1.43;;;;;;;18.67;61.01;100050.13;5074763;28;20433;-61
2023/04/25 11:16:13;;;;;;;3.53;1.43;;;;;;;18.67;61.06;100045.22;5037558;28;20925;-62
2023/04/25 11:18:41;;;;;;;3.00;1.30;;;;;;;18.69;61.12;100047.69;5072071;28;20495;-61
2023/04/25 11:21:07;;;;;;;2.70;1.10;;;;;;;18.69;60.93;100051.41;5074384;28;20652;-61
2023/04/25 11:23:32;;;;;;;4.13;1.70;;;;;;;18.68;61.07;100049.75;5072135;28;20405;-61
2023/04/25 11:25:57;;;;;;;3.50;1.70;;;;;;;18.70;61.30;100047.31;5072667;28;20205;-61
2023/04/25 11:28:23;;;;;;;3.00;1.33;;;;;;;18.71;61.40;100042.44;5072078;28;20205;-62